createdAt,value
2018-09-13T00:02:22.803Z,17.20
2018-09-13T00:04:50.916Z,17.77
2018-09-13T00:07:19.017Z,17.50
2018-09-13T00:09:47.105Z,17.90
2018-09-13T00:12:15.239Z,16.53
2018-09-13T00:14:43.334Z,17.87
2018-09-13T00:17:11.413Z,15.33
2018-09-13T00:19:39.511Z,15.80
2018-09-13T00:22:07.607Z,16.73
2018-09-13T00:24:35.693Z,15.13
2018-09-13T00:27:03.792Z,16.93
2018-09-13T00:29:31.883Z,15.90
2018-09-13T00:31:59.984Z,15.97
2018-09-13T00:34:28.065Z,14.93
2018-09-13T00:36:56.150Z,14.90
2018-09-13T00:39:24.244Z,13.10
2018-09-13T00:41:52.340Z,13.50
2018-09-13T00:44:20.428Z,14.07
2018-09-13T00:46:48.527Z,12.73
2018-09-13T00:49:16.615Z,14.03
2018-09-13T00:51:44.698Z,13.93
2018-09-13T00:54:12.802Z,14.30
2018-09-13T00:56:40.895Z,12.20
2018-09-13T00:59:09.008Z,14.70
2018-09-13T01:01:37.116Z,14.83
2018-09-13T01:04:05.298Z,13.30
2018-09-13T01:06:33.663Z,13.53
2018-09-13T01:09:01.795Z,14.30
2018-09-13T01:11:29.971Z,13.30
2018-09-13T01:13:58.124Z,14.77
2018-09-13T01:16:26.258Z,15.10
2018-09-13T01:18:54.407Z,15.87
2018-09-13T01:21:22.641Z,14.93
2018-09-13T01:23:50.787Z,14.60
2018-09-13T01:26:18.913Z,14.50
2018-09-13T01:28:47.075Z,12.93
2018-09-13T01:31:15.212Z,14.43
2018-09-13T01:33:43.344Z,14.90
2018-09-13T01:36:11.488Z,13.50
2018-09-13T01:38:39.640Z,14.27
2018-09-13T01:41:07.761Z,15.80
2018-09-13T01:43:35.904Z,16.53
2018-09-13T01:46:04.070Z,16.27
2018-09-13T01:48:32.206Z,16.20
2018-09-13T01:51:00.342Z,15.43
2018-09-13T01:53:28.499Z,16.20
2018-09-13T01:55:56.644Z,18.00
2018-09-13T01:58:24.770Z,17.80
2018-09-13T02:00:52.955Z,17.60
2018-09-13T02:03:21.056Z,19.83
2018-09-13T02:05:49.361Z,18.47
2018-09-13T02:08:17.489Z,19.47
2018-09-13T02:10:45.583Z,18.73
2018-09-13T02:13:13.695Z,18.53
2018-09-13T02:15:41.796Z,18.67
2018-09-13T02:18:09.900Z,17.73
2018-09-13T02:20:38.199Z,19.20
2018-09-13T02:23:06.298Z,18.70
2018-09-13T02:25:34.392Z,19.30
2018-09-13T02:28:02.502Z,19.33
2018-09-13T02:30:30.584Z,20.80
2018-09-13T02:32:58.712Z,18.73
2018-09-13T02:35:26.816Z,18.50
2018-09-13T02:37:54.920Z,18.63
2018-09-13T02:40:23.044Z,18.13
2018-09-13T02:42:51.156Z,20.10
2018-09-13T02:45:19.229Z,20.17
2018-09-13T02:47:47.342Z,19.30
2018-09-13T02:50:15.430Z,19.83
2018-09-13T02:52:43.522Z,20.67
2018-09-13T02:55:11.616Z,20.90
2018-09-13T02:57:39.696Z,21.03
2018-09-13T03:00:08.459Z,20.47
2018-09-13T03:02:36.678Z,22.30
2018-09-13T03:05:04.823Z,22.60
2018-09-13T03:07:32.975Z,22.07
2018-09-13T03:10:01.109Z,22.67
2018-09-13T03:12:29.244Z,22.90
2018-09-13T03:14:57.392Z,22.77
2018-09-13T03:17:25.551Z,22.13
2018-09-13T03:19:53.716Z,21.73
2018-09-13T03:22:21.856Z,22.60
2018-09-13T03:24:49.996Z,21.93
2018-09-13T03:27:18.121Z,21.97
2018-09-13T03:29:46.295Z,23.53
2018-09-13T03:32:14.438Z,22.37
2018-09-13T03:34:42.633Z,23.50
2018-09-13T03:37:10.756Z,23.20
2018-09-13T03:39:38.905Z,23.07
2018-09-13T03:42:07.207Z,22.83
2018-09-13T03:44:35.230Z,24.10
2018-09-13T03:47:03.374Z,24.00
2018-09-13T03:49:31.515Z,24.30
2018-09-13T03:51:59.651Z,25.80
2018-09-13T03:54:27.799Z,24.17
2018-09-13T03:56:55.941Z,25.90
2018-09-13T03:59:24.082Z,24.30
2018-09-13T04:01:52.228Z,24.67
2018-09-13T04:04:20.317Z,23.10
2018-09-13T04:06:48.431Z,24.47
2018-09-13T04:09:16.539Z,24.23
2018-09-13T04:11:44.623Z,24.97
2018-09-13T04:14:12.720Z,24.30
2018-09-13T04:16:40.819Z,24.20
2018-09-13T04:19:08.911Z,23.77
2018-09-13T04:21:37.016Z,23.73
2018-09-13T04:24:05.380Z,24.00
2018-09-13T04:26:33.457Z,22.00
2018-09-13T04:29:01.552Z,24.03
2018-09-13T04:31:29.651Z,22.07
2018-09-13T04:33:57.746Z,22.10
2018-09-13T04:36:25.864Z,22.17
2018-09-13T04:38:54.208Z,22.30
2018-09-13T04:41:22.494Z,22.57
2018-09-13T04:43:50.587Z,21.90
2018-09-13T04:46:18.698Z,22.00
2018-09-13T04:48:46.780Z,21.03
2018-09-13T04:51:14.883Z,20.00
2018-09-13T04:53:42.965Z,18.13
2018-09-13T04:56:11.198Z,17.80
2018-09-13T04:58:40.270Z,17.93
2018-09-13T05:01:09.094Z,16.93
2018-09-13T05:03:38.036Z,17.27
2018-09-13T05:06:06.375Z,16.63
2018-09-13T05:08:34.453Z,15.27
2018-09-13T05:11:02.563Z,13.50
2018-09-13T05:13:30.792Z,12.83
2018-09-13T05:15:59.492Z,12.23
2018-09-13T05:18:28.473Z,12.60
2018-09-13T05:20:56.565Z,12.03
2018-09-13T05:23:24.672Z,12.00
2018-09-13T05:25:52.775Z,11.43
2018-09-13T05:28:20.892Z,11.77
2018-09-13T05:30:48.991Z,10.60
2018-09-13T05:33:17.077Z,10.43
2018-09-13T05:35:45.192Z,10.73
2018-09-13T05:38:13.293Z,9.27
2018-09-13T05:40:41.385Z,8.80
2018-09-13T05:43:09.473Z,10.77
2018-09-13T05:45:37.569Z,9.33
2018-09-13T05:48:05.665Z,8.73
2018-09-13T05:50:33.755Z,9.53
2018-09-13T05:53:01.852Z,9.00
2018-09-13T05:55:29.947Z,9.60
2018-09-13T05:57:58.108Z,8.43
2018-09-13T06:03:00.818Z,8.07
2018-09-13T06:05:28.919Z,8.60
2018-09-13T06:07:57.446Z,7.50
2018-09-13T06:10:25.520Z,8.27
2018-09-13T06:12:53.623Z,9.70
2018-09-13T06:15:21.710Z,9.10
2018-09-13T06:17:49.808Z,9.57
2018-09-13T06:20:17.896Z,9.40
2018-09-13T06:22:53.024Z,8.87
2018-09-13T06:25:21.115Z,9.20
2018-09-13T06:27:49.210Z,10.37
2018-09-13T06:30:17.304Z,9.53
2018-09-13T06:32:45.399Z,10.40
2018-09-13T06:35:13.491Z,10.03
2018-09-13T06:37:41.604Z,10.23
2018-09-13T06:40:09.698Z,10.70
2018-09-13T06:42:37.912Z,10.30
2018-09-13T06:45:06.395Z,9.93
2018-09-13T06:47:34.679Z,10.40
2018-09-13T06:50:02.808Z,10.83
2018-09-13T06:52:30.913Z,10.47
2018-09-13T06:54:59.008Z,10.60
2018-09-13T06:57:27.108Z,10.50
2018-09-13T06:59:55.217Z,9.87
2018-09-13T07:02:23.402Z,10.60
2018-09-13T07:04:51.688Z,10.10
2018-09-13T07:07:19.815Z,11.37
2018-09-13T07:09:47.929Z,10.60
2018-09-13T07:12:16.058Z,9.60
2018-09-13T07:14:44.179Z,8.77
2018-09-13T07:17:12.308Z,9.13
2018-09-13T07:19:40.616Z,9.40
2018-09-13T07:22:08.768Z,7.97
2018-09-13T07:24:36.884Z,7.80
2018-09-13T07:27:05.007Z,8.13
2018-09-13T07:29:33.135Z,8.23
2018-09-13T07:32:01.237Z,8.20
2018-09-13T07:34:29.366Z,7.83
2018-09-13T07:36:57.484Z,7.90
2018-09-13T07:39:25.606Z,7.07
2018-09-13T07:41:53.748Z,6.80
2018-09-13T07:44:21.853Z,6.50
2018-09-13T07:46:49.979Z,7.40
2018-09-13T07:49:18.165Z,6.00
2018-09-13T07:51:46.209Z,6.10
2018-09-13T07:54:14.338Z,5.80
2018-09-13T07:56:42.455Z,7.23
2018-09-13T07:59:10.565Z,6.70
2018-09-13T08:01:38.691Z,6.80
2018-09-13T08:04:07.331Z,5.43
2018-09-13T08:06:35.644Z,6.60
2018-09-13T08:09:05.845Z,5.70
2018-09-13T08:11:33.953Z,5.40
2018-09-13T08:14:02.079Z,5.17
2018-09-13T08:16:30.196Z,4.87
2018-09-13T08:18:58.324Z,5.67
2018-09-13T08:21:26.446Z,5.20
2018-09-13T08:23:54.541Z,5.20
2018-09-13T08:26:22.642Z,5.17
2018-09-13T08:28:50.857Z,4.63
2018-09-13T08:31:18.965Z,4.30
2018-09-13T08:33:47.081Z,4.60
2018-09-13T08:36:15.193Z,4.60
2018-09-13T08:38:43.328Z,4.00
2018-09-13T08:41:11.451Z,4.27
2018-09-13T08:43:39.573Z,5.37
2018-09-13T08:46:07.684Z,4.30
2018-09-13T08:48:35.797Z,5.40
2018-09-13T08:51:03.916Z,4.27
2018-09-13T08:53:32.074Z,4.20
2018-09-13T08:56:00.210Z,4.63
2018-09-13T08:58:28.344Z,4.07
2018-09-13T09:00:56.677Z,5.23
2018-09-13T09:03:24.808Z,4.83
2018-09-13T09:05:52.938Z,4.10
2018-09-13T09:08:21.061Z,4.27
2018-09-13T09:10:49.183Z,4.00
2018-09-13T09:13:17.312Z,3.97
2018-09-13T09:15:45.431Z,3.60
2018-09-13T09:18:13.539Z,4.00
2018-09-13T09:20:41.650Z,3.40
2018-09-13T09:23:09.775Z,4.17
2018-09-13T09:25:37.901Z,3.30
2018-09-13T09:28:06.031Z,4.33
2018-09-13T09:30:34.312Z,4.27
2018-09-13T09:33:02.444Z,4.60
2018-09-13T09:35:30.583Z,4.40
2018-09-13T09:37:58.666Z,4.40
2018-09-13T09:40:26.830Z,5.00
2018-09-13T09:42:54.943Z,5.20
2018-09-13T09:45:23.064Z,4.20
2018-09-13T09:47:51.173Z,10.77
2018-09-13T09:50:19.346Z,21.97
2018-09-13T09:52:47.492Z,6.33
2018-09-13T09:55:19.885Z,6.80
2018-09-13T09:57:48.028Z,5.20
2018-09-13T10:00:16.128Z,5.73
2018-09-13T10:02:44.251Z,5.70
2018-09-13T10:08:15.857Z,5.10
2018-09-13T10:10:43.945Z,4.70
2018-09-13T10:13:12.045Z,4.50
2018-09-13T10:15:45.588Z,5.40
2018-09-13T10:18:18.977Z,4.87
2018-09-13T10:20:52.485Z,5.50
2018-09-13T10:23:26.164Z,5.50
2018-09-13T10:25:59.742Z,5.30
2018-09-13T10:28:33.345Z,5.50
2018-09-13T10:32:07.778Z,5.90
2018-09-13T10:34:41.464Z,5.70
2018-09-13T10:37:14.910Z,6.10
2018-09-13T10:39:48.450Z,6.70
2018-09-13T10:42:22.101Z,5.87
2018-09-13T10:45:55.444Z,5.50
2018-09-13T10:48:27.201Z,6.63
2018-09-13T10:51:00.679Z,6.43
2018-09-13T10:53:36.085Z,7.50
2018-09-13T10:56:05.101Z,7.43
2018-09-13T10:58:33.941Z,8.50
2018-09-13T11:01:02.117Z,7.10
2018-09-13T11:03:30.204Z,8.40
2018-09-13T11:05:58.296Z,7.70
2018-09-13T11:08:26.516Z,7.67
2018-09-13T11:10:54.778Z,9.17
2018-09-13T11:13:28.934Z,8.60
2018-09-13T11:15:57.008Z,7.53
2018-09-13T11:18:25.096Z,9.20
2018-09-13T11:20:53.182Z,8.50
2018-09-13T11:23:21.265Z,8.87
2018-09-13T11:25:49.397Z,8.87
2018-09-13T11:28:17.490Z,9.00
2018-09-13T11:30:49.828Z,10.33
2018-09-13T11:33:17.926Z,8.70
2018-09-13T11:35:46.028Z,9.30
2018-09-13T11:38:14.152Z,9.73
2018-09-13T11:40:42.442Z,10.43
2018-09-13T11:43:10.331Z,9.53
2018-09-13T11:45:38.430Z,10.73
2018-09-13T11:48:06.531Z,9.50
2018-09-13T11:50:34.629Z,8.87
2018-09-13T11:53:02.712Z,9.80
2018-09-13T11:55:30.788Z,12.43
2018-09-13T11:57:58.881Z,12.43
2018-09-13T12:00:27.293Z,13.73
2018-09-13T12:02:55.410Z,12.40
2018-09-13T12:05:23.509Z,13.00
2018-09-13T12:07:51.629Z,15.07
2018-09-13T12:10:19.733Z,14.60
2018-09-13T12:12:47.930Z,16.37
2018-09-13T12:15:16.242Z,17.43
2018-09-13T12:17:44.390Z,17.30
2018-09-13T12:20:12.484Z,15.53
2018-09-13T12:22:40.570Z,15.23
2018-09-13T12:25:08.683Z,15.37
2018-09-13T12:27:36.844Z,14.23
2018-09-13T12:30:05.220Z,16.77
2018-09-13T12:32:33.358Z,16.70
2018-09-13T12:35:01.413Z,17.90
2018-09-13T12:37:29.491Z,17.00
2018-09-13T12:39:57.592Z,17.50
2018-09-13T12:42:25.752Z,18.93
2018-09-13T12:44:53.892Z,17.93
2018-09-13T12:47:21.968Z,18.67
2018-09-13T12:49:51.140Z,15.87
2018-09-13T12:52:19.288Z,18.90
2018-09-13T12:54:47.345Z,18.10
2018-09-13T12:57:15.465Z,18.77
2018-09-13T12:59:43.577Z,19.50
2018-09-13T13:02:11.716Z,19.20
2018-09-13T13:04:40.620Z,20.77
2018-09-13T13:07:15.116Z,21.60
2018-09-13T13:09:43.245Z,21.60
2018-09-13T13:12:11.390Z,24.60
2018-09-13T13:14:39.488Z,25.63
2018-09-13T13:17:07.589Z,25.40
2018-09-13T13:19:35.682Z,24.17
2018-09-13T13:22:03.915Z,23.60
2018-09-13T13:24:31.999Z,24.70
2018-09-13T13:27:00.107Z,24.23
2018-09-13T13:29:28.217Z,22.60
2018-09-13T13:31:56.284Z,20.80
2018-09-13T13:36:58.875Z,22.00
2018-09-13T13:39:26.968Z,19.23
2018-09-13T13:41:55.099Z,20.97
2018-09-13T13:44:23.199Z,21.13
2018-09-13T13:46:51.295Z,20.57
2018-09-13T13:49:19.437Z,19.80
2018-09-13T13:51:47.492Z,20.20
2018-09-13T13:54:15.576Z,20.70
2018-09-13T13:56:43.768Z,20.60
2018-09-13T13:59:11.839Z,20.33
2018-09-13T14:01:39.934Z,23.43
2018-09-13T14:04:08.042Z,24.70
2018-09-13T14:06:36.152Z,22.70
2018-09-13T14:09:08.292Z,22.60
2018-09-13T14:11:36.404Z,24.50
2018-09-13T14:14:04.516Z,22.73
2018-09-13T14:16:32.625Z,22.90
2018-09-13T14:19:00.727Z,24.40
2018-09-13T14:21:28.831Z,25.43
2018-09-13T14:23:56.954Z,24.30
2018-09-13T14:26:25.045Z,23.10
2018-09-13T14:28:53.216Z,25.07
2018-09-13T14:31:21.329Z,24.20
2018-09-13T14:33:49.420Z,25.13
2018-09-13T14:36:17.511Z,22.63
2018-09-13T14:38:45.607Z,23.17
2018-09-13T14:41:13.739Z,22.77
2018-09-13T14:43:41.814Z,21.63
2018-09-13T14:46:09.905Z,23.70
2018-09-13T14:48:38.026Z,22.57
2018-09-13T14:51:06.287Z,21.90
2018-09-13T14:53:34.410Z,22.53
2018-09-13T14:56:02.495Z,21.50
2018-09-13T14:58:30.562Z,23.27
2018-09-13T15:00:58.653Z,23.20
2018-09-13T15:03:26.839Z,23.73
2018-09-13T15:05:55.014Z,21.50
2018-09-13T15:08:23.131Z,21.50
2018-09-13T15:10:51.237Z,16.97
2018-09-13T15:13:20.177Z,18.80
2018-09-13T15:15:48.312Z,17.77
2018-09-13T15:18:16.446Z,17.70
2018-09-13T15:20:44.543Z,19.20
2018-09-13T15:23:12.684Z,17.80
2018-09-13T15:25:40.797Z,18.00
2018-09-13T15:28:08.953Z,19.43
2018-09-13T15:30:37.055Z,20.00
2018-09-13T15:33:05.165Z,19.80
2018-09-13T15:38:07.718Z,19.70
2018-09-13T15:40:35.830Z,22.20
2018-09-13T15:43:09.655Z,19.87
2018-09-13T15:45:37.782Z,19.00
2018-09-13T15:48:05.863Z,17.20
2018-09-13T15:50:33.990Z,16.70
2018-09-13T15:53:02.140Z,18.70
2018-09-13T15:55:30.415Z,17.80
2018-09-13T15:57:58.558Z,17.40
2018-09-13T16:00:26.653Z,14.77
2018-09-13T16:02:54.775Z,16.80
2018-09-13T16:05:22.880Z,14.97
2018-09-13T16:07:50.980Z,16.23
2018-09-13T16:12:53.836Z,14.40
2018-09-13T16:15:21.884Z,16.13
2018-09-13T16:17:49.982Z,15.87
2018-09-13T16:20:18.076Z,18.13
2018-09-13T16:22:46.180Z,18.33
2018-09-13T16:25:14.273Z,18.47
2018-09-13T16:27:42.395Z,20.37
2018-09-13T16:30:10.483Z,19.17
2018-09-13T16:32:38.583Z,19.13
2018-09-13T16:35:06.987Z,20.27
2018-09-13T16:37:40.307Z,19.70
2018-09-13T16:40:13.828Z,20.97
2018-09-13T16:47:05.247Z,20.97
2018-09-13T16:49:33.917Z,18.53
2018-09-13T16:52:02.014Z,18.33
2018-09-13T16:54:30.158Z,17.80
2018-09-13T16:56:58.266Z,17.83
2018-09-13T16:59:26.377Z,18.43
2018-09-13T17:01:54.475Z,17.40
2018-09-13T17:04:22.593Z,16.53
2018-09-13T17:06:50.767Z,17.30
2018-09-13T17:09:18.840Z,16.73
2018-09-13T17:11:46.949Z,17.47
2018-09-13T17:14:15.061Z,17.33
2018-09-13T17:16:43.197Z,17.40
2018-09-13T17:19:11.334Z,16.37
2018-09-13T17:21:39.508Z,16.80
2018-09-13T17:24:07.633Z,18.20
2018-09-13T17:26:35.759Z,16.80
2018-09-13T17:29:03.881Z,17.60
2018-09-13T17:31:32.045Z,16.17
2018-09-13T17:34:00.326Z,17.00
2018-09-13T17:36:35.075Z,19.50
2018-09-13T17:39:03.235Z,17.30
2018-09-13T17:41:31.353Z,17.80
2018-09-13T17:43:59.464Z,19.47
2018-09-13T17:46:27.565Z,18.87
2018-09-13T17:48:55.676Z,19.50
2018-09-13T17:51:23.780Z,19.13
2018-09-13T17:53:51.889Z,18.40
2018-09-13T17:56:20.028Z,19.50
2018-09-13T17:58:48.379Z,20.00
2018-09-13T18:01:16.536Z,19.63
2018-09-13T18:03:44.771Z,20.80
2018-09-13T18:06:12.858Z,19.80
2018-09-13T18:08:40.932Z,18.67
2018-09-13T18:11:09.032Z,19.70
2018-09-13T18:13:37.167Z,19.53
2018-09-13T18:16:05.260Z,19.20
2018-09-13T18:18:33.348Z,19.63
2018-09-13T18:21:01.459Z,18.93
2018-09-13T18:23:29.696Z,20.53
2018-09-13T18:25:57.888Z,20.70
2018-09-13T18:28:26.114Z,18.13
2018-09-13T18:30:54.315Z,18.97
2018-09-13T18:33:22.710Z,18.90
2018-09-13T18:35:51.285Z,20.00
2018-09-13T18:38:19.391Z,18.73
2018-09-13T18:40:47.530Z,17.90
2018-09-13T18:43:15.620Z,18.10
2018-09-13T18:45:43.999Z,19.03
2018-09-13T18:48:12.156Z,19.50
2018-09-13T18:50:40.290Z,18.80
2018-09-13T18:53:08.446Z,18.50
2018-09-13T18:55:36.551Z,19.10
2018-09-13T18:58:04.632Z,17.03
2018-09-13T19:00:32.792Z,18.50
2018-09-13T19:03:00.878Z,18.60
2018-09-13T19:05:29.331Z,17.47
2018-09-13T19:07:57.421Z,19.43
2018-09-13T19:10:25.542Z,19.90
2018-09-13T19:12:53.688Z,19.00
2018-09-13T19:15:21.830Z,22.00
2018-09-13T19:17:49.953Z,21.20
2018-09-13T19:20:24.465Z,20.47
2018-09-13T19:22:53.104Z,22.13
2018-09-13T19:25:21.447Z,19.27
2018-09-13T19:27:49.891Z,19.90
2018-09-13T19:30:18.171Z,20.80
2018-09-13T19:32:46.465Z,21.83
2018-09-13T19:35:14.700Z,22.13
2018-09-13T19:37:43.146Z,21.57
2018-09-13T19:40:11.613Z,22.40
2018-09-13T19:42:39.734Z,21.13
2018-09-13T19:45:07.866Z,20.87
2018-09-13T19:47:36.143Z,20.53
2018-09-13T19:50:04.268Z,19.40
2018-09-13T19:52:32.503Z,20.83
2018-09-13T19:55:00.760Z,19.77
2018-09-13T19:57:28.876Z,21.37
2018-09-13T19:59:57.050Z,20.27
2018-09-13T20:02:25.160Z,19.33
2018-09-13T20:04:53.333Z,20.87
2018-09-13T20:07:21.399Z,19.93
2018-09-13T20:09:49.515Z,21.77
2018-09-13T20:12:17.788Z,20.13
2018-09-13T20:14:45.768Z,20.83
2018-09-13T20:17:13.889Z,22.87
2018-09-13T20:19:42.096Z,19.80
2018-09-13T20:22:11.587Z,21.50
2018-09-13T20:24:39.776Z,21.77
2018-09-13T20:27:07.994Z,20.17
2018-09-13T20:29:36.529Z,21.50
2018-09-13T20:32:04.699Z,21.40
2018-09-13T20:34:32.825Z,20.20
2018-09-13T20:37:00.945Z,20.77
2018-09-13T20:39:29.082Z,21.40
2018-09-13T20:41:57.398Z,21.87
2018-09-13T20:44:25.524Z,20.70
2018-09-13T20:46:53.854Z,21.00
2018-09-13T20:49:21.990Z,21.40
2018-09-13T20:51:50.112Z,21.80
2018-09-13T20:54:18.274Z,22.47
2018-09-13T20:56:46.425Z,22.43
2018-09-13T20:59:14.589Z,22.37
2018-09-13T21:01:42.753Z,22.60
2018-09-13T21:04:10.942Z,20.07
2018-09-13T21:06:39.093Z,20.73
2018-09-13T21:09:09.174Z,23.40
2018-09-13T21:11:37.306Z,23.10
2018-09-13T21:14:05.408Z,22.77
2018-09-13T21:16:33.499Z,24.60
2018-09-13T21:19:01.656Z,22.80
2018-09-13T21:21:29.759Z,23.10
2018-09-13T21:23:57.873Z,22.20
2018-09-13T21:26:25.966Z,22.60
2018-09-13T21:28:54.084Z,22.40
2018-09-13T21:31:22.248Z,24.90
2018-09-13T21:33:50.365Z,22.83
2018-09-13T21:36:18.509Z,23.90
2018-09-13T21:38:46.655Z,21.43
2018-09-13T21:41:14.789Z,22.97
2018-09-13T21:43:42.899Z,22.90
2018-09-13T21:46:10.998Z,23.53
2018-09-13T21:48:39.091Z,23.27
2018-09-13T21:51:07.184Z,23.17
2018-09-13T21:53:35.339Z,24.93
2018-09-13T21:56:03.416Z,23.90
2018-09-13T21:58:31.503Z,22.93
2018-09-13T22:00:59.616Z,23.77
2018-09-13T22:03:27.718Z,22.93
2018-09-13T22:05:55.844Z,21.90
2018-09-13T22:08:23.976Z,24.43
2018-09-13T22:10:52.079Z,23.90
2018-09-13T22:13:20.179Z,23.00
2018-09-13T22:15:48.284Z,24.00
2018-09-13T22:18:16.393Z,23.60
2018-09-13T22:20:44.496Z,22.73
2018-09-13T22:23:12.599Z,23.23
2018-09-13T22:25:40.705Z,23.23
2018-09-13T22:28:08.839Z,22.53
2018-09-13T22:30:36.989Z,22.87
2018-09-13T22:33:05.217Z,24.27
2018-09-13T22:35:33.345Z,24.10
2018-09-13T22:38:01.478Z,23.00
2018-09-13T22:40:29.632Z,24.27
2018-09-13T22:42:57.741Z,26.10
2018-09-13T22:45:25.865Z,22.90
2018-09-13T22:47:53.986Z,24.50
2018-09-13T22:50:22.090Z,23.40
2018-09-13T22:52:50.212Z,22.57
2018-09-13T22:55:18.316Z,22.30
2018-09-13T22:57:46.441Z,22.87
2018-09-13T23:00:14.535Z,21.73
2018-09-13T23:02:47.485Z,22.93
2018-09-13T23:05:16.135Z,25.27
2018-09-13T23:07:44.517Z,22.30
2018-09-13T23:10:12.646Z,23.07
2018-09-13T23:12:40.766Z,22.53
2018-09-13T23:15:08.896Z,24.27
2018-09-13T23:17:37.266Z,23.40
2018-09-13T23:20:05.491Z,24.50
2018-09-13T23:22:33.596Z,23.23
2018-09-13T23:25:01.833Z,24.67
2018-09-13T23:27:29.936Z,22.90
2018-09-13T23:29:58.044Z,23.70
2018-09-13T23:32:26.458Z,26.00
2018-09-13T23:34:54.559Z,23.00
2018-09-13T23:37:22.681Z,24.67
2018-09-13T23:39:50.900Z,23.90
2018-09-13T23:42:18.884Z,21.30
2018-09-13T23:44:46.994Z,22.70
2018-09-13T23:47:15.109Z,22.53
2018-09-13T23:49:43.216Z,22.17
2018-09-13T23:52:11.325Z,21.80
2018-09-13T23:54:45.972Z,23.07
2018-09-13T23:57:14.086Z,22.10
2018-09-13T23:59:42.209Z,23.43
